ExpreSS Skopelitis — SW3130 — position and weather

sailwx.info

Track history (hours):
 
Tides and Currents Weather Stations Pressure Air Temp Water Temp Dewpoint Dewpoint Depression Visibility Wind Speed Wind Dir Waves Ship Positions

ExpreSS Skopelitis

Last reported at 2016-May-05 14:31 UTC. Time now 2016-May-06 03:39 UTC.
Position N 36°51' E 025°47'.

Length 45 m; draft 2.4 m.

Type: Passenger vessel. MMSI: 237029400.

Date/timePositionNaut miles runAvg speedWind from/ knotsBaromVisibWave heightAir tempDewpointWater temp
2016-May-05 14:31N 36°51' E 025°47'1010.3
2016-May-05 13:32N 36°56' E 025°35'13 6.4
2016-May-05 11:33N 37°01' E 025°21'5 5.0
2016-May-05 10:33N 37°06' E 025°22'0 0.0
2016-May-05 09:33N 37°06' E 025°22'0 0.0
2016-May-05 08:33N 37°06' E 025°22'2 2.1
2016-May-05 07:34N 37°05' E 025°20'15 7.4
2016-May-05 05:33N 36°55' E 025°33'1010.1
2016-May-05 04:33N 36°52' E 025°46'9 0.7
2016-May-04 16:21N 36°53' E 025°56'6 7.6
2016-May-04 15:33N 36°58' E 025°53'8 8.0
2016-May-04 14:33N 37°04' E 025°46'1210.9
2016-May-04 13:28N 36°56' E 025°36'13 7.0
2016-May-04 11:33N 37°02' E 025°21'5 4.9
2016-May-04 10:33N 37°06' E 025°22'0 0.0
2016-May-04 09:33N 37°06' E 025°22'3 3.0
2016-May-04 08:33N 37°04' E 025°20'15 7.4
2016-May-04 06:30N 36°56' E 025°35'1110.9
2016-May-04 05:32N 37°03' E 025°45'8 7.5
2016-May-04 04:31N 36°59' E 025°53'7 6.9
2016-May-04 03:29N 36°52' E 025°54'6 0.4
2016-May-03 14:32N 36°51' E 025°46'10 9.7
2016-May-03 13:31N 36°56' E 025°35'10 6.9
2016-May-03 12:07N 36°56' E 025°23'611.1
2016-May-03 11:33N 37°02' E 025°21'5 4.7
2016-May-03 10:33N 37°06' E 025°22'0 0.0
2016-May-03 09:33N 37°06' E 025°22'0 0.0
2016-May-03 08:33N 37°06' E 025°22'3 2.8
2016-May-03 07:33N 37°04' E 025°20'15 7.1
2016-May-03 05:28N 36°55' E 025°35'1110.2
2016-May-03 04:20N 36°51' E 025°48'3 0.3
2016-May-02 16:33N 36°52' E 025°52'6 6.3
2016-May-02 15:32N 36°58' E 025°54'9 8.5
2016-May-02 14:31N 37°04' E 025°45'1111.0
2016-May-02 13:30N 36°56' E 025°36'9 6.6
2016-May-02 12:05N 36°57' E 025°24'712.3
2016-May-02 11:33N 37°02' E 025°21'4 4.2
2016-May-02 10:33N 37°06' E 025°22'0 0.0
2016-May-02 09:33N 37°06' E 025°22'6 6.2
2016-May-02 08:33N 37°00' E 025°22'10 8.8
2016-May-02 07:23N 36°52' E 025°30'6 7.3
2016-May-02 06:32N 36°56' E 025°36'1210.8
2016-May-02 05:27N 37°04' E 025°46'8 8.6
2016-May-02 04:32N 36°59' E 025°53'7 6.9
2016-May-02 03:32N 36°52' E 025°53'3 0.1
2016-Apr-30 17:19N 36°50' E 025°52'7 8.5
2016-Apr-30 16:31N 36°54' E 025°58'1010.3
2016-Apr-30 15:33N 37°02' E 025°51'7 6.0
2016-Apr-30 14:26N 37°01' E 025°43'11 9.7
2016-Apr-30 13:16N 36°54' E 025°31'12 7.2
2016-Apr-30 11:34N 37°02' E 025°21'4 4.2
2016-Apr-30 10:33N 37°06' E 025°22'0 0.0
2016-Apr-30 09:30N 37°06' E 025°22'3 3.5
2016-Apr-30 08:34N 37°04' E 025°20'1312.0
2016-Apr-30 07:28N 36°52' E 025°28'7 7.3
2016-Apr-30 06:31N 36°56' E 025°36'1110.8
2016-Apr-30 05:32N 37°04' E 025°45'7 7.4
2016-Apr-30 04:33N 36°60' E 025°53'7 6.9
2016-Apr-30 03:28N 36°52' E 025°53'4 0.3
2016-Apr-29 14:32N 36°51' E 025°48'1110.4
2016-Apr-29 13:31N 36°56' E 025°36'7 6.9
2016-Apr-29 12:30N 36°52' E 025°28'1111.7
2016-Apr-29 11:33N 37°01' E 025°21'5 5.1
2016-Apr-29 10:33N 37°06' E 025°22'0 0.0
2016-Apr-29 09:33N 37°06' E 025°22'0 0.0
2016-Apr-29 08:33N 37°06' E 025°22'1 1.2
2016-Apr-29 07:33N 37°06' E 025°21'1211.4
2016-Apr-29 06:30N 36°54' E 025°26'5 5.5
2016-Apr-29 05:33N 36°54' E 025°33'1110.0
2016-Apr-29 04:26N 36°52' E 025°47'0 0.0
2016-Apr-28 14:32N 36°51' E 025°46'9 9.3
2016-Apr-28 13:32N 36°56' E 025°36'13 6.6
2016-Apr-28 11:33N 37°01' E 025°21'5 5.2
2016-Apr-28 10:33N 37°06' E 025°22'0 0.0
2016-Apr-28 09:33N 37°06' E 025°22'0 0.0
2016-Apr-28 08:33N 37°06' E 025°22'2 1.6
2016-Apr-28 07:32N 37°06' E 025°21'1211.6
2016-Apr-28 06:31N 36°55' E 025°26'5 5.6
2016-Apr-28 05:33N 36°55' E 025°33'1110.1
2016-Apr-28 04:27N 36°52' E 025°47'10 0.7
2016-Apr-27 14:31N 37°02' E 025°44'18 6.2
2016-Apr-27 11:33N 37°02' E 025°21'4 4.3
2016-Apr-27 10:33N 37°06' E 025°22'0 0.0
2016-Apr-27 09:33N 37°06' E 025°22'3 3.3
2016-Apr-27 08:33N 37°03' E 025°20'15 7.1
2016-Apr-27 06:28N 36°56' E 025°36'1212.0
2016-Apr-27 05:30N 37°04' E 025°46'9 8.5
2016-Apr-27 04:29N 36°58' E 025°54'6 6.6
2016-Apr-27 03:32N 36°52' E 025°54'5 0.4
2016-Apr-26 14:29N 36°51' E 025°48'1110.8
2016-Apr-26 13:27N 36°56' E 025°35'13 6.8
2016-Apr-26 11:33N 37°01' E 025°21'5 5.0
2016-Apr-26 10:33N 37°06' E 025°22'0 0.0
2016-Apr-26 09:34N 37°06' E 025°22'0 0.0
2016-Apr-26 08:33N 37°06' E 025°22'3 2.8
2016-Apr-26 07:33N 37°04' E 025°20'15 7.2
2016-Apr-26 05:27N 36°56' E 025°35'1010.3
2016-Apr-26 04:30N 36°52' E 025°47'8 0.7
2016-Apr-25 16:23N 36°53' E 025°57'11 9.5
2016-Apr-25 15:11N 37°03' E 025°50'4 5.4
2016-Apr-25 14:31N 37°03' E 025°45'  
Track history (hours):
 
Tides and Currents Weather Stations Pressure Air Temp Water Temp Dewpoint Dewpoint Depression Visibility Wind Speed Wind Dir Waves Ship Positions

ExpreSS Skopelitis

Last reported at 2016-May-05 14:31 UTC. Time now 2016-May-06 03:39 UTC.
Position N 36°51' E 025°47'.

Length 45 m; draft 2.4 m.

Type: Passenger vessel. MMSI: 237029400.

Date/timePositionNaut miles runAvg speedWind from/ knotsBaromVisibWave heightAir tempDewpointWater temp
2016-May-05 14:31N 36°51' E 025°47'1010.3
2016-May-05 13:32N 36°56' E 025°35'13 6.4
2016-May-05 11:33N 37°01' E 025°21'5 5.0
2016-May-05 10:33N 37°06' E 025°22'0 0.0
2016-May-05 09:33N 37°06' E 025°22'0 0.0
2016-May-05 08:33N 37°06' E 025°22'2 2.1
2016-May-05 07:34N 37°05' E 025°20'15 7.4
2016-May-05 05:33N 36°55' E 025°33'1010.1
2016-May-05 04:33N 36°52' E 025°46'9 0.7
2016-May-04 16:21N 36°53' E 025°56'6 7.6
2016-May-04 15:33N 36°58' E 025°53'8 8.0
2016-May-04 14:33N 37°04' E 025°46'1210.9
2016-May-04 13:28N 36°56' E 025°36'13 7.0
2016-May-04 11:33N 37°02' E 025°21'5 4.9
2016-May-04 10:33N 37°06' E 025°22'0 0.0
2016-May-04 09:33N 37°06' E 025°22'3 3.0
2016-May-04 08:33N 37°04' E 025°20'15 7.4
2016-May-04 06:30N 36°56' E 025°35'1110.9
2016-May-04 05:32N 37°03' E 025°45'8 7.5
2016-May-04 04:31N 36°59' E 025°53'7 6.9
2016-May-04 03:29N 36°52' E 025°54'6 0.4
2016-May-03 14:32N 36°51' E 025°46'10 9.7
2016-May-03 13:31N 36°56' E 025°35'10 6.9
2016-May-03 12:07N 36°56' E 025°23'611.1
2016-May-03 11:33N 37°02' E 025°21'5 4.7
2016-May-03 10:33N 37°06' E 025°22'0 0.0
2016-May-03 09:33N 37°06' E 025°22'0 0.0
2016-May-03 08:33N 37°06' E 025°22'3 2.8
2016-May-03 07:33N 37°04' E 025°20'15 7.1
2016-May-03 05:28N 36°55' E 025°35'1110.2
2016-May-03 04:20N 36°51' E 025°48'3 0.3
2016-May-02 16:33N 36°52' E 025°52'6 6.3
2016-May-02 15:32N 36°58' E 025°54'9 8.5
2016-May-02 14:31N 37°04' E 025°45'1111.0
2016-May-02 13:30N 36°56' E 025°36'9 6.6
2016-May-02 12:05N 36°57' E 025°24'712.3
2016-May-02 11:33N 37°02' E 025°21'4 4.2
2016-May-02 10:33N 37°06' E 025°22'0 0.0
2016-May-02 09:33N 37°06' E 025°22'6 6.2
2016-May-02 08:33N 37°00' E 025°22'10 8.8
2016-May-02 07:23N 36°52' E 025°30'6 7.3
2016-May-02 06:32N 36°56' E 025°36'1210.8
2016-May-02 05:27N 37°04' E 025°46'8 8.6
2016-May-02 04:32N 36°59' E 025°53'7 6.9
2016-May-02 03:32N 36°52' E 025°53'3 0.1
2016-Apr-30 17:19N 36°50' E 025°52'7 8.5
2016-Apr-30 16:31N 36°54' E 025°58'1010.3
2016-Apr-30 15:33N 37°02' E 025°51'7 6.0
2016-Apr-30 14:26N 37°01' E 025°43'11 9.7
2016-Apr-30 13:16N 36°54' E 025°31'12 7.2
2016-Apr-30 11:34N 37°02' E 025°21'4 4.2
2016-Apr-30 10:33N 37°06' E 025°22'0 0.0
2016-Apr-30 09:30N 37°06' E 025°22'3 3.5
2016-Apr-30 08:34N 37°04' E 025°20'1312.0
2016-Apr-30 07:28N 36°52' E 025°28'7 7.3
2016-Apr-30 06:31N 36°56' E 025°36'1110.8
2016-Apr-30 05:32N 37°04' E 025°45'7 7.4
2016-Apr-30 04:33N 36°60' E 025°53'7 6.9
2016-Apr-30 03:28N 36°52' E 025°53'4 0.3
2016-Apr-29 14:32N 36°51' E 025°48'1110.4
2016-Apr-29 13:31N 36°56' E 025°36'7 6.9
2016-Apr-29 12:30N 36°52' E 025°28'1111.7
2016-Apr-29 11:33N 37°01' E 025°21'5 5.1
2016-Apr-29 10:33N 37°06' E 025°22'0 0.0
2016-Apr-29 09:33N 37°06' E 025°22'0 0.0
2016-Apr-29 08:33N 37°06' E 025°22'1 1.2
2016-Apr-29 07:33N 37°06' E 025°21'1211.4
2016-Apr-29 06:30N 36°54' E 025°26'5 5.5
2016-Apr-29 05:33N 36°54' E 025°33'1110.0
2016-Apr-29 04:26N 36°52' E 025°47'0 0.0
2016-Apr-28 14:32N 36°51' E 025°46'9 9.3
2016-Apr-28 13:32N 36°56' E 025°36'13 6.6
2016-Apr-28 11:33N 37°01' E 025°21'5 5.2
2016-Apr-28 10:33N 37°06' E 025°22'0 0.0
2016-Apr-28 09:33N 37°06' E 025°22'0 0.0
2016-Apr-28 08:33N 37°06' E 025°22'2 1.6
2016-Apr-28 07:32N 37°06' E 025°21'1211.6
2016-Apr-28 06:31N 36°55' E 025°26'5 5.6
2016-Apr-28 05:33N 36°55' E 025°33'1110.1
2016-Apr-28 04:27N 36°52' E 025°47'10 0.7
2016-Apr-27 14:31N 37°02' E 025°44'18 6.2
2016-Apr-27 11:33N 37°02' E 025°21'4 4.3
2016-Apr-27 10:33N 37°06' E 025°22'0 0.0
2016-Apr-27 09:33N 37°06' E 025°22'3 3.3
2016-Apr-27 08:33N 37°03' E 025°20'15 7.1
2016-Apr-27 06:28N 36°56' E 025°36'1212.0
2016-Apr-27 05:30N 37°04' E 025°46'9 8.5
2016-Apr-27 04:29N 36°58' E 025°54'6 6.6
2016-Apr-27 03:32N 36°52' E 025°54'5 0.4
2016-Apr-26 14:29N 36°51' E 025°48'1110.8
2016-Apr-26 13:27N 36°56' E 025°35'13 6.8
2016-Apr-26 11:33N 37°01' E 025°21'5 5.0
2016-Apr-26 10:33N 37°06' E 025°22'0 0.0
2016-Apr-26 09:34N 37°06' E 025°22'0 0.0
2016-Apr-26 08:33N 37°06' E 025°22'3 2.8
2016-Apr-26 07:33N 37°04' E 025°20'15 7.2
2016-Apr-26 05:27N 36°56' E 025°35'1010.3
2016-Apr-26 04:30N 36°52' E 025°47'8 0.7
2016-Apr-25 16:23N 36°53' E 025°57'11 9.5
2016-Apr-25 15:11N 37°03' E 025°50'4 5.4
2016-Apr-25 14:31N 37°03' E 025°45'  

Dump ship's entire track history